Adairville, Kentucky
Current Conditions -  °F | °C
As of 10:55 PM on Sunday 23 Nov 2014 (Local Time) from KM91 Reporting Station
Overcast Overcast  
Wind Chill: 61°   Ceiling: 1700
Heat Index: 61°   Visibility: 10mi
Dew Point: 61°   Wind: 17mph
Humidity: 100%   Direction: 230°SW
Pressure: 29.46"   Gusts: 25mph
Location:  36.67°N, 86.85°W
Report Text: KM91 240455Z AUTO 23015G22KT 10SM BKN017 OVC024 16/16 A2946 RMK
Loading
Personal Weather Stations






























Interactive Weather Map New forecast layout! Learn more

10-Day Weather Forecast

Advertisements
Track Severe Weather on mobile